createdAt,value
2022-12-25T00:02:05.615Z,83.58
2022-12-25T00:05:08.907Z,83.58
2022-12-25T00:08:11.703Z,83.56
2022-12-25T00:11:17.194Z,83.58
2022-12-25T00:14:20.229Z,83.81
2022-12-25T00:17:23.137Z,83.88
2022-12-25T00:20:25.949Z,84.17
2022-12-25T00:23:29.348Z,84.14
2022-12-25T00:26:32.493Z,83.94
2022-12-25T00:29:35.519Z,83.90
2022-12-25T00:32:38.555Z,83.98
2022-12-25T00:35:41.515Z,84.35
2022-12-25T00:38:46.686Z,84.49
2022-12-25T00:42:08.242Z,84.52
2022-12-25T00:45:11.058Z,84.42
2022-12-25T00:48:13.883Z,85.14
2022-12-25T00:51:16.699Z,84.92
2022-12-25T00:54:19.921Z,85.06
2022-12-25T00:57:23.012Z,84.57
2022-12-25T01:00:25.872Z,84.44
2022-12-25T01:03:28.827Z,84.56
2022-12-25T01:06:32.503Z,84.66
2022-12-25T01:09:54.066Z,84.87
2022-12-25T01:12:57.013Z,84.86
2022-12-25T01:15:59.925Z,84.79
2022-12-25T01:19:03.787Z,84.87
2022-12-25T01:22:06.884Z,84.74
2022-12-25T01:25:10.767Z,85.04
2022-12-25T01:28:13.850Z,85.17
2022-12-25T01:31:18.912Z,85.16
2022-12-25T01:34:21.815Z,85.11
2022-12-25T01:37:25.603Z,85.17
2022-12-25T01:40:28.483Z,85.43
2022-12-25T01:43:33.732Z,85.33
2022-12-25T01:46:36.784Z,85.56
2022-12-25T01:49:42.556Z,85.33
2022-12-25T01:52:46.579Z,84.79
2022-12-25T01:55:54.622Z,84.65
2022-12-25T01:58:58.623Z,84.64
2022-12-25T02:02:01.877Z,84.67
2022-12-25T02:05:13.992Z,84.78
2022-12-25T02:08:20.616Z,84.99
2022-12-25T02:11:42.055Z,85.16
2022-12-25T02:14:46.094Z,85.19
2022-12-25T02:18:03.012Z,85.12
2022-12-25T02:22:00.456Z,85.47
2022-12-25T02:25:38.721Z,85.02
2022-12-25T02:28:47.670Z,85.15
2022-12-25T02:31:53.622Z,85.14
2022-12-25T02:35:03.176Z,85.20
2022-12-25T02:38:20.352Z,85.35
2022-12-25T02:41:23.338Z,85.13
2022-12-25T02:45:01.279Z,85.09
2022-12-25T02:48:24.033Z,85.05
2022-12-25T02:51:50.119Z,85.06
2022-12-25T02:55:18.550Z,85.22
2022-12-25T02:58:43.126Z,85.05
2022-12-25T03:02:05.331Z,84.62
2022-12-25T03:05:31.458Z,84.58
2022-12-25T03:08:41.606Z,84.44
2022-12-25T03:11:52.484Z,84.49
2022-12-25T03:15:13.988Z,84.60
2022-12-25T03:18:20.052Z,84.64
2022-12-25T03:21:41.654Z,84.85
2022-12-25T03:25:03.149Z,84.92
2022-12-25T03:28:06.627Z,84.81
2022-12-25T03:31:30.494Z,84.66
2022-12-25T03:35:12.526Z,84.66
2022-12-25T03:38:48.465Z,84.71
2022-12-25T03:42:17.046Z,84.56
2022-12-25T03:45:47.699Z,84.77
2022-12-25T03:49:17.252Z,84.65
2022-12-25T03:52:39.985Z,84.51
2022-12-25T03:56:02.582Z,84.85
2022-12-25T03:59:24.462Z,84.83
2022-12-25T04:02:46.509Z,84.74
2022-12-25T04:06:25.215Z,84.50
2022-12-25T04:09:47.003Z,84.28
2022-12-25T04:13:08.364Z,84.39
2022-12-25T04:16:30.003Z,84.33
2022-12-25T04:19:58.710Z,84.28
2022-12-25T04:23:20.364Z,84.18
2022-12-25T04:26:42.045Z,84.08
2022-12-25T04:30:11.038Z,84.12
2022-12-25T04:33:32.614Z,84.40
2022-12-25T04:36:35.423Z,84.29
2022-12-25T04:39:38.238Z,84.16
2022-12-25T04:42:42.318Z,84.11
2022-12-25T04:45:55.830Z,84.17
2022-12-25T04:48:58.656Z,84.28
2022-12-25T04:52:01.462Z,84.33
2022-12-25T04:55:05.305Z,84.30
2022-12-25T04:58:08.471Z,84.24
2022-12-25T05:01:12.660Z,84.45
2022-12-25T05:04:15.453Z,84.24
2022-12-25T05:07:18.261Z,84.54
2022-12-25T05:10:21.160Z,84.64
2022-12-25T05:13:24.939Z,84.77
2022-12-25T05:16:28.013Z,84.54
2022-12-25T05:19:31.857Z,84.60
2022-12-25T05:22:34.777Z,84.86
2022-12-25T05:25:41.126Z,84.95
2022-12-25T05:28:43.930Z,85.03
2022-12-25T05:31:46.881Z,84.91
2022-12-25T05:34:49.749Z,84.81
2022-12-25T05:37:52.589Z,84.82
2022-12-25T05:40:55.435Z,84.77
2022-12-25T05:43:58.259Z,84.81
2022-12-25T05:47:01.118Z,84.83
2022-12-25T05:50:05.135Z,84.68
2022-12-25T05:53:09.612Z,84.65
2022-12-25T05:56:12.642Z,84.48
2022-12-25T05:59:15.487Z,84.71
2022-12-25T06:02:18.417Z,84.87
2022-12-25T06:05:21.409Z,84.88
2022-12-25T06:08:24.309Z,85.01
2022-12-25T06:11:27.264Z,85.08
2022-12-25T06:14:30.130Z,85.14
2022-12-25T06:17:33.089Z,85.27
2022-12-25T06:20:36.029Z,85.59
2022-12-25T06:23:39.371Z,85.69
2022-12-25T06:26:42.596Z,85.69
2022-12-25T06:29:45.580Z,85.83
2022-12-25T06:32:48.697Z,85.78
2022-12-25T06:35:51.522Z,85.66
2022-12-25T06:38:54.524Z,85.55
2022-12-25T06:41:57.541Z,85.45
2022-12-25T06:45:00.383Z,85.66
2022-12-25T06:48:03.412Z,86.19
2022-12-25T06:51:07.349Z,86.47
2022-12-25T06:54:11.836Z,86.49
2022-12-25T06:57:14.716Z,86.32
2022-12-25T07:00:17.707Z,86.13
2022-12-25T07:03:22.278Z,86.09
2022-12-25T07:06:25.729Z,86.23
2022-12-25T07:09:28.603Z,86.43
2022-12-25T07:12:31.416Z,86.72
2022-12-25T07:15:34.303Z,86.73
2022-12-25T07:18:37.447Z,86.78
2022-12-25T07:21:40.347Z,86.41
2022-12-25T07:24:43.573Z,86.49
2022-12-25T07:27:46.535Z,86.51
2022-12-25T07:30:49.695Z,86.62
2022-12-25T07:33:55.839Z,86.87
2022-12-25T07:36:58.919Z,86.95
2022-12-25T07:40:02.322Z,86.69
2022-12-25T07:43:05.676Z,86.54
2022-12-25T07:46:09.726Z,86.43
2022-12-25T07:49:12.922Z,86.57
2022-12-25T07:52:16.068Z,86.88
2022-12-25T07:55:19.107Z,86.78
2022-12-25T07:58:23.595Z,86.56
2022-12-25T08:01:28.111Z,86.23
2022-12-25T08:04:31.776Z,85.95
2022-12-25T08:07:38.792Z,85.85
2022-12-25T08:10:46.651Z,85.94
2022-12-25T08:13:50.440Z,85.98
2022-12-25T08:16:53.926Z,85.82
2022-12-25T08:19:58.006Z,85.53
2022-12-25T08:23:02.244Z,85.21
2022-12-25T08:26:09.236Z,85.20
2022-12-25T08:29:13.577Z,85.06
2022-12-25T08:32:18.936Z,85.14
2022-12-25T08:35:28.275Z,85.16
2022-12-25T08:38:34.229Z,84.69
2022-12-25T08:41:39.112Z,84.52
2022-12-25T08:44:48.801Z,84.28
2022-12-25T08:47:57.800Z,83.96
2022-12-25T08:51:03.780Z,83.76
2022-12-25T08:54:06.708Z,83.95
2022-12-25T08:57:09.930Z,83.71
2022-12-25T09:00:13.367Z,83.57
2022-12-25T09:03:16.204Z,83.27
2022-12-25T09:06:19.050Z,83.10
2022-12-25T09:09:27.370Z,82.87
2022-12-25T09:12:30.178Z,82.66
2022-12-25T09:15:32.994Z,82.76
2022-12-25T09:18:36.036Z,82.65
2022-12-25T09:21:38.869Z,82.20
2022-12-25T09:24:43.825Z,82.59
2022-12-25T09:27:46.740Z,82.72
2022-12-25T09:30:53.234Z,82.24
2022-12-25T09:33:58.126Z,82.02
2022-12-25T09:37:02.003Z,81.72
2022-12-25T09:40:05.564Z,81.63
2022-12-25T09:43:16.789Z,81.60
2022-12-25T09:46:23.886Z,81.62
2022-12-25T09:49:47.260Z,81.39
2022-12-25T09:53:17.307Z,81.09
2022-12-25T09:56:27.101Z,81.51
2022-12-25T09:59:30.757Z,81.10
2022-12-25T10:02:48.316Z,80.80
2022-12-25T10:06:13.370Z,80.48
2022-12-25T10:09:27.517Z,80.16
2022-12-25T10:12:37.096Z,80.06
2022-12-25T10:16:03.193Z,80.18
2022-12-25T10:19:18.129Z,79.22
2022-12-25T10:22:38.030Z,79.25
2022-12-25T10:25:41.968Z,79.32
2022-12-25T10:28:47.889Z,79.23
2022-12-25T10:31:55.459Z,79.14
2022-12-25T10:34:58.368Z,79.03
2022-12-25T10:38:19.072Z,79.07
2022-12-25T10:41:59.805Z,79.13
2022-12-25T10:45:08.246Z,79.02
2022-12-25T10:48:25.933Z,78.82
2022-12-25T10:51:31.820Z,78.67
2022-12-25T10:54:36.113Z,77.46
2022-12-25T10:57:46.142Z,77.88
2022-12-25T11:00:54.567Z,77.71
2022-12-25T11:03:57.623Z,77.68
2022-12-25T11:07:18.627Z,77.39
2022-12-25T11:10:31.190Z,78.11
2022-12-25T11:13:47.777Z,78.05
2022-12-25T11:16:50.654Z,77.55
2022-12-25T11:19:59.424Z,77.69
2022-12-25T11:23:02.229Z,77.73
2022-12-25T11:26:07.879Z,77.01
2022-12-25T11:29:35.323Z,77.59
2022-12-25T11:32:43.592Z,77.28
2022-12-25T11:35:53.020Z,77.04
2022-12-25T11:38:57.394Z,76.87
2022-12-25T11:42:21.339Z,77.05
2022-12-25T11:45:27.039Z,76.89
2022-12-25T11:48:34.207Z,77.20
2022-12-25T11:51:42.306Z,77.04
2022-12-25T11:54:55.034Z,77.15
2022-12-25T11:58:04.890Z,77.02
2022-12-25T12:01:27.707Z,76.70
2022-12-25T12:04:42.693Z,76.89
2022-12-25T12:08:06.320Z,76.50
2022-12-25T12:11:20.703Z,76.80
2022-12-25T12:14:23.522Z,76.99
2022-12-25T12:17:26.680Z,76.99
2022-12-25T12:20:35.592Z,76.84
2022-12-25T12:24:10.788Z,76.91
2022-12-25T12:27:32.238Z,77.52
2022-12-25T12:30:35.721Z,76.96
2022-12-25T12:33:44.215Z,76.87
2022-12-25T12:36:47.063Z,76.70
2022-12-25T12:39:54.225Z,76.70
2022-12-25T12:42:57.090Z,76.74
2022-12-25T12:46:16.192Z,76.81
2022-12-25T12:49:28.491Z,76.99
2022-12-25T12:52:38.995Z,77.17
2022-12-25T12:55:42.039Z,76.82
2022-12-25T12:58:51.124Z,77.01
2022-12-25T13:02:11.135Z,77.48
2022-12-25T13:05:41.378Z,77.20
2022-12-25T13:09:05.125Z,77.12
2022-12-25T13:12:08.917Z,77.08
2022-12-25T13:15:14.043Z,77.13
2022-12-25T13:18:17.558Z,77.69
2022-12-25T13:21:26.917Z,77.95
2022-12-25T13:24:32.602Z,77.89
2022-12-25T13:27:35.557Z,77.51
2022-12-25T13:30:38.435Z,77.33
2022-12-25T13:33:45.662Z,77.16
2022-12-25T13:36:48.672Z,77.24
2022-12-25T13:39:55.159Z,77.21
2022-12-25T13:43:01.920Z,77.56
2022-12-25T13:46:05.545Z,77.84
2022-12-25T13:49:17.949Z,77.78
2022-12-25T13:52:28.656Z,78.07
2022-12-25T13:55:33.851Z,78.28
2022-12-25T13:58:37.465Z,78.36
2022-12-25T14:01:45.097Z,78.49
2022-12-25T14:04:48.123Z,78.70
2022-12-25T14:07:53.546Z,78.53
2022-12-25T14:10:57.516Z,78.80
2022-12-25T14:14:04.254Z,78.82
2022-12-25T14:17:07.243Z,79.06
2022-12-25T14:20:26.209Z,79.32
2022-12-25T14:23:43.393Z,79.63
2022-12-25T14:26:46.295Z,79.73
2022-12-25T14:29:51.899Z,79.49
2022-12-25T14:32:56.007Z,79.44
2022-12-25T14:35:59.276Z,79.39
2022-12-25T14:39:05.840Z,79.80
2022-12-25T14:42:23.859Z,80.10
2022-12-25T14:45:35.002Z,80.44
2022-12-25T14:48:37.782Z,80.74
2022-12-25T14:51:43.142Z,80.97
2022-12-25T14:54:49.134Z,81.12
2022-12-25T14:57:57.176Z,81.20
2022-12-25T15:01:02.932Z,81.75
2022-12-25T15:04:13.358Z,82.00
2022-12-25T15:07:30.846Z,81.96
2022-12-25T15:13:57.774Z,81.47
2022-12-25T15:17:01.695Z,82.09
2022-12-25T15:20:05.583Z,82.63
2022-12-25T15:23:20.083Z,83.05
2022-12-25T15:26:24.293Z,83.00
2022-12-25T15:30:00.160Z,83.07
2022-12-25T15:32:50.328Z,82.93
2022-12-25T15:35:53.175Z,83.27
2022-12-25T15:38:56.843Z,83.20
2022-12-25T15:42:12.762Z,83.01
2022-12-25T15:45:25.717Z,83.14
2022-12-25T15:48:28.809Z,83.45
2022-12-25T15:51:32.026Z,83.56
2022-12-25T15:54:34.915Z,83.58
2022-12-25T15:57:41.081Z,83.69
2022-12-25T16:00:51.656Z,83.42
2022-12-25T16:03:54.670Z,83.61
2022-12-25T16:06:58.159Z,83.60
2022-12-25T16:10:01.067Z,83.47
2022-12-25T16:13:04.161Z,83.49
2022-12-25T16:16:07.424Z,83.38
2022-12-25T16:19:10.285Z,83.40
2022-12-25T16:22:18.412Z,83.28
2022-12-25T16:25:21.360Z,83.39
2022-12-25T16:28:24.267Z,83.46
2022-12-25T16:31:27.188Z,83.04
2022-12-25T16:34:30.020Z,82.91
2022-12-25T16:37:32.848Z,82.77
2022-12-25T16:40:35.793Z,82.55
2022-12-25T16:43:38.591Z,82.74
2022-12-25T16:46:41.481Z,82.63
2022-12-25T16:49:44.362Z,82.78
2022-12-25T16:52:47.218Z,82.90
2022-12-25T16:55:50.156Z,82.87
2022-12-25T16:58:53.027Z,82.94
2022-12-25T17:01:55.948Z,82.83
2022-12-25T17:05:00.674Z,82.76
2022-12-25T17:08:03.715Z,82.68
2022-12-25T17:11:06.766Z,82.66
2022-12-25T17:14:10.752Z,82.65
2022-12-25T17:17:13.698Z,82.49
2022-12-25T17:20:16.650Z,82.30
2022-12-25T17:23:20.940Z,82.45
2022-12-25T17:26:25.041Z,82.27
2022-12-25T17:29:27.965Z,82.31
2022-12-25T17:32:31.012Z,82.28
2022-12-25T17:35:37.187Z,82.20
2022-12-25T17:38:40.547Z,82.09
2022-12-25T17:41:43.358Z,82.11
2022-12-25T17:44:46.451Z,82.01
2022-12-25T17:47:49.287Z,81.89
2022-12-25T17:50:52.112Z,82.01
2022-12-25T17:53:57.334Z,81.87
2022-12-25T17:57:00.115Z,81.71
2022-12-25T18:00:03.352Z,81.80
2022-12-25T18:03:11.558Z,81.76
2022-12-25T18:06:18.696Z,81.57
2022-12-25T18:09:21.775Z,81.44
2022-12-25T18:12:24.616Z,81.30
2022-12-25T18:15:27.510Z,81.49
2022-12-25T18:18:31.212Z,81.38
2022-12-25T18:21:34.571Z,81.16
2022-12-25T18:24:37.949Z,81.15
2022-12-25T18:27:40.848Z,81.16
2022-12-25T18:30:45.196Z,81.04
2022-12-25T18:33:48.297Z,80.85
2022-12-25T18:36:51.109Z,80.62
2022-12-25T18:39:54.036Z,80.58
2022-12-25T18:43:02.997Z,80.39
2022-12-25T18:46:06.908Z,80.28
2022-12-25T18:49:11.146Z,80.27
2022-12-25T18:52:48.868Z,80.02
2022-12-25T18:55:40.773Z,79.64
2022-12-25T18:58:43.839Z,79.60
2022-12-25T19:01:46.927Z,79.40
2022-12-25T19:04:49.936Z,79.38
2022-12-25T19:07:53.111Z,79.21
2022-12-25T19:10:56.265Z,79.14
2022-12-25T19:13:59.239Z,78.98
2022-12-25T19:17:04.963Z,78.91
2022-12-25T19:20:08.589Z,78.51
2022-12-25T19:23:11.404Z,78.64
2022-12-25T19:26:14.269Z,78.80
2022-12-25T19:29:17.555Z,78.74
2022-12-25T19:32:20.627Z,78.71
2022-12-25T19:35:23.677Z,78.54
2022-12-25T19:38:26.559Z,78.48
2022-12-25T19:41:29.452Z,78.28
2022-12-25T19:44:32.333Z,78.39
2022-12-25T19:47:35.158Z,78.07
2022-12-25T19:50:38.021Z,77.70
2022-12-25T19:53:40.851Z,77.59
2022-12-25T19:56:43.794Z,77.47
2022-12-25T19:59:46.614Z,77.26
2022-12-25T20:02:49.605Z,77.28
2022-12-25T20:05:56.757Z,77.73
2022-12-25T20:09:09.281Z,77.31
2022-12-25T20:12:14.855Z,77.31
2022-12-25T20:15:22.795Z,77.22
2022-12-25T20:18:25.723Z,77.45
2022-12-25T20:21:30.139Z,77.54
2022-12-25T20:24:33.075Z,77.30
2022-12-25T20:27:36.142Z,76.90
2022-12-25T20:30:40.191Z,76.89
2022-12-25T20:33:43.907Z,76.78
2022-12-25T20:36:46.784Z,76.83
2022-12-25T20:39:49.604Z,76.52
2022-12-25T20:42:52.399Z,76.50
2022-12-25T20:45:55.576Z,76.47
2022-12-25T20:48:58.708Z,76.47
2022-12-25T20:52:05.365Z,76.27
2022-12-25T20:55:08.770Z,76.49
2022-12-25T20:58:11.899Z,76.34
2022-12-25T21:01:18.081Z,76.51
2022-12-25T21:04:21.484Z,76.50
2022-12-25T21:07:24.289Z,76.37
2022-12-25T21:10:27.483Z,76.39
2022-12-25T21:13:36.486Z,76.29
2022-12-25T21:16:39.393Z,76.50
2022-12-25T21:19:42.302Z,76.36
2022-12-25T21:22:45.215Z,76.18
2022-12-25T21:25:48.905Z,76.30
2022-12-25T21:28:55.102Z,76.16
2022-12-25T21:32:16.836Z,76.22
2022-12-25T21:35:19.617Z,76.36
2022-12-25T21:38:22.501Z,76.25
2022-12-25T21:41:26.664Z,76.36
2022-12-25T21:44:29.456Z,76.42
2022-12-25T21:48:00.419Z,76.44
2022-12-25T21:51:14.034Z,76.79
2022-12-25T21:54:19.483Z,76.70
2022-12-25T21:57:22.323Z,76.66
2022-12-25T22:00:25.133Z,76.69
2022-12-25T22:03:28.154Z,76.52
2022-12-25T22:06:50.544Z,76.39
2022-12-25T22:09:53.502Z,76.52
2022-12-25T22:13:14.786Z,76.46
2022-12-25T22:16:36.374Z,76.64
2022-12-25T22:19:45.452Z,76.87
2022-12-25T22:22:48.525Z,77.11
2022-12-25T22:25:51.328Z,77.19
2022-12-25T22:28:54.166Z,77.09
2022-12-25T22:31:56.946Z,77.03
2022-12-25T22:35:00.628Z,77.25
2022-12-25T22:38:03.469Z,77.37
2022-12-25T22:41:07.044Z,77.37
2022-12-25T22:44:18.252Z,77.43
2022-12-25T22:47:21.965Z,77.47
2022-12-25T22:50:24.804Z,77.65
2022-12-25T22:53:27.611Z,77.85
2022-12-25T22:56:30.473Z,77.80
2022-12-25T22:59:33.398Z,77.86
2022-12-25T23:02:36.568Z,77.89
2022-12-25T23:05:39.756Z,78.08
2022-12-25T23:08:42.665Z,78.17
2022-12-25T23:11:45.908Z,78.10
2022-12-25T23:14:48.715Z,78.26
2022-12-25T23:18:10.254Z,78.51
2022-12-25T23:21:34.731Z,78.37
2022-12-25T23:24:56.478Z,78.73
2022-12-25T23:27:59.297Z,78.73
2022-12-25T23:31:02.948Z,78.73
2022-12-25T23:34:06.959Z,78.55
2022-12-25T23:37:10.808Z,78.78
2022-12-25T23:40:13.605Z,78.85
2022-12-25T23:43:16.385Z,78.95
2022-12-25T23:46:19.831Z,79.02
2022-12-25T23:49:24.729Z,78.84
2022-12-25T23:52:27.604Z,79.02
2022-12-25T23:55:30.378Z,79.05
2022-12-25T23:58:33.228Z,78.91
